sensor_id;sensor_type;location;lat;lon;timestamp;temperature;humidity
39401;SHT31;75540;50.000;7.360;2024-01-07T00:00:16;0.39;97.33
39401;SHT31;75540;50.000;7.360;2024-01-07T00:02:44;0.32;97.52
39401;SHT31;75540;50.000;7.360;2024-01-07T00:05:12;0.45;97.27
39401;SHT31;75540;50.000;7.360;2024-01-07T00:07:40;0.30;97.39
39401;SHT31;75540;50.000;7.360;2024-01-07T00:10:10;0.38;97.27
39401;SHT31;75540;50.000;7.360;2024-01-07T00:12:39;0.38;97.22
39401;SHT31;75540;50.000;7.360;2024-01-07T00:15:07;0.43;97.09
39401;SHT31;75540;50.000;7.360;2024-01-07T00:17:36;0.49;96.94
39401;SHT31;75540;50.000;7.360;2024-01-07T00:20:05;0.49;97.07
39401;SHT31;75540;50.000;7.360;2024-01-07T00:22:34;0.53;96.91
39401;SHT31;75540;50.000;7.360;2024-01-07T00:25:02;0.38;96.89
39401;SHT31;75540;50.000;7.360;2024-01-07T00:27:32;0.30;97.11
39401;SHT31;75540;50.000;7.360;2024-01-07T00:30:00;0.29;97.51
39401;SHT31;75540;50.000;7.360;2024-01-07T00:32:28;0.23;97.62
39401;SHT31;75540;50.000;7.360;2024-01-07T00:34:56;0.21;97.77
39401;SHT31;75540;50.000;7.360;2024-01-07T00:37:24;0.33;97.68
39401;SHT31;75540;50.000;7.360;2024-01-07T00:39:53;0.26;97.86
39401;SHT31;75540;50.000;7.360;2024-01-07T00:42:21;0.18;98.15
39401;SHT31;75540;50.000;7.360;2024-01-07T00:44:50;0.18;98.10
39401;SHT31;75540;50.000;7.360;2024-01-07T00:47:19;0.28;98.03
39401;SHT31;75540;50.000;7.360;2024-01-07T00:49:47;0.23;97.90
39401;SHT31;75540;50.000;7.360;2024-01-07T00:52:15;0.13;98.45
39401;SHT31;75540;50.000;7.360;2024-01-07T00:54:43;0.21;98.06
39401;SHT31;75540;50.000;7.360;2024-01-07T00:57:12;0.23;98.06
39401;SHT31;75540;50.000;7.360;2024-01-07T00:59:41;0.28;98.19
39401;SHT31;75540;50.000;7.360;2024-01-07T01:02:11;0.18;98.32
39401;SHT31;75540;50.000;7.360;2024-01-07T01:04:39;0.23;98.21
39401;SHT31;75540;50.000;7.360;2024-01-07T01:07:07;0.18;98.43
39401;SHT31;75540;50.000;7.360;2024-01-07T01:09:36;0.22;98.31
39401;SHT31;75540;50.000;7.360;2024-01-07T01:12:05;0.12;98.56
39401;SHT31;75540;50.000;7.360;2024-01-07T01:14:33;0.08;98.84
39401;SHT31;75540;50.000;7.360;2024-01-07T01:17:02;0.05;98.69
39401;SHT31;75540;50.000;7.360;2024-01-07T01:19:32;0.19;98.56
39401;SHT31;75540;50.000;7.360;2024-01-07T01:22:00;0.08;98.55
39401;SHT31;75540;50.000;7.360;2024-01-07T01:24:29;0.02;98.64
39401;SHT31;75540;50.000;7.360;2024-01-07T01:26:57;0.01;98.81
39401;SHT31;75540;50.000;7.360;2024-01-07T01:29:25;0.12;98.85
39401;SHT31;75540;50.000;7.360;2024-01-07T01:31:54;0.03;98.84
39401;SHT31;75540;50.000;7.360;2024-01-07T01:34:22;0.06;99.06
39401;SHT31;75540;50.000;7.360;2024-01-07T01:36:51;0.09;99.03
39401;SHT31;75540;50.000;7.360;2024-01-07T01:39:19;0.09;98.85
39401;SHT31;75540;50.000;7.360;2024-01-07T01:41:48;0.09;99.18
39401;SHT31;75540;50.000;7.360;2024-01-07T01:44:16;0.02;99.22
39401;SHT31;75540;50.000;7.360;2024-01-07T01:46:45;0.02;99.35
39401;SHT31;75540;50.000;7.360;2024-01-07T01:49:13;0.08;99.28
39401;SHT31;75540;50.000;7.360;2024-01-07T01:51:42;0.12;99.18
39401;SHT31;75540;50.000;7.360;2024-01-07T01:54:12;0.06;99.14
39401;SHT31;75540;50.000;7.360;2024-01-07T01:56:40;0.09;98.96
39401;SHT31;75540;50.000;7.360;2024-01-07T01:59:08;0.05;98.95
39401;SHT31;75540;50.000;7.360;2024-01-07T02:01:37;0.03;98.80
39401;SHT31;75540;50.000;7.360;2024-01-07T02:04:06;0.01;98.70
39401;SHT31;75540;50.000;7.360;2024-01-07T02:06:34;0.16;98.52
39401;SHT31;75540;50.000;7.360;2024-01-07T02:09:02;0.12;98.45
39401;SHT31;75540;50.000;7.360;2024-01-07T02:11:32;0.05;98.28
39401;SHT31;75540;50.000;7.360;2024-01-07T02:14:00;0.15;98.33
39401;SHT31;75540;50.000;7.360;2024-01-07T02:16:29;0.06;98.13
39401;SHT31;75540;50.000;7.360;2024-01-07T02:18:57;0.02;98.14
39401;SHT31;75540;50.000;7.360;2024-01-07T02:21:25;0.06;98.36
39401;SHT31;75540;50.000;7.360;2024-01-07T02:23:53;0.18;98.31
39401;SHT31;75540;50.000;7.360;2024-01-07T02:26:24;0.23;98.21
39401;SHT31;75540;50.000;7.360;2024-01-07T02:28:52;0.16;98.22
39401;SHT31;75540;50.000;7.360;2024-01-07T02:31:20;0.09;98.39
39401;SHT31;75540;50.000;7.360;2024-01-07T02:33:48;0.08;98.44
39401;SHT31;75540;50.000;7.360;2024-01-07T02:36:17;0.19;98.50
39401;SHT31;75540;50.000;7.360;2024-01-07T02:38:45;0.15;98.59
39401;SHT31;75540;50.000;7.360;2024-01-07T02:41:13;0.16;98.46
39401;SHT31;75540;50.000;7.360;2024-01-07T02:43:42;0.16;98.63
39401;SHT31;75540;50.000;7.360;2024-01-07T02:46:11;0.03;98.83
39401;SHT31;75540;50.000;7.360;2024-01-07T02:48:39;0.11;98.87
39401;SHT31;75540;50.000;7.360;2024-01-07T02:51:12;0.11;99.11
39401;SHT31;75540;50.000;7.360;2024-01-07T02:53:40;0.05;99.22
39401;SHT31;75540;50.000;7.360;2024-01-07T02:56:09;0.16;99.30
39401;SHT31;75540;50.000;7.360;2024-01-07T02:58:37;0.03;99.19
39401;SHT31;75540;50.000;7.360;2024-01-07T03:01:09;0.06;99.24
39401;SHT31;75540;50.000;7.360;2024-01-07T03:03:38;0.11;99.30
39401;SHT31;75540;50.000;7.360;2024-01-07T03:06:06;-0.02;99.36
39401;SHT31;75540;50.000;7.360;2024-01-07T03:08:35;0.05;99.43
39401;SHT31;75540;50.000;7.360;2024-01-07T03:11:05;0.02;99.44
39401;SHT31;75540;50.000;7.360;2024-01-07T03:13:33;0.06;99.50
39401;SHT31;75540;50.000;7.360;2024-01-07T03:16:01;0.01;99.47
39401;SHT31;75540;50.000;7.360;2024-01-07T03:18:31;0.08;99.53
39401;SHT31;75540;50.000;7.360;2024-01-07T03:20:59;0.13;99.46
39401;SHT31;75540;50.000;7.360;2024-01-07T03:23:27;0.11;99.38
39401;SHT31;75540;50.000;7.360;2024-01-07T03:25:58;0.12;99.38
39401;SHT31;75540;50.000;7.360;2024-01-07T03:28:26;0.03;99.35
39401;SHT31;75540;50.000;7.360;2024-01-07T03:30:54;0.03;99.50
39401;SHT31;75540;50.000;7.360;2024-01-07T03:33:22;0.08;99.49
39401;SHT31;75540;50.000;7.360;2024-01-07T03:35:52;0.05;99.46
39401;SHT31;75540;50.000;7.360;2024-01-07T03:38:20;0.02;99.50
39401;SHT31;75540;50.000;7.360;2024-01-07T03:40:49;-0.06;99.51
39401;SHT31;75540;50.000;7.360;2024-01-07T03:43:17;0.09;99.59
39401;SHT31;75540;50.000;7.360;2024-01-07T03:45:45;0.03;99.51
39401;SHT31;75540;50.000;7.360;2024-01-07T03:48:13;0.13;99.51
39401;SHT31;75540;50.000;7.360;2024-01-07T03:50:41;0.13;99.47
39401;SHT31;75540;50.000;7.360;2024-01-07T03:53:11;0.19;99.48
39401;SHT31;75540;50.000;7.360;2024-01-07T03:55:40;0.19;99.33
39401;SHT31;75540;50.000;7.360;2024-01-07T03:58:08;0.23;99.29
39401;SHT31;75540;50.000;7.360;2024-01-07T04:00:37;0.13;99.37
39401;SHT31;75540;50.000;7.360;2024-01-07T04:03:06;0.19;99.22
39401;SHT31;75540;50.000;7.360;2024-01-07T04:05:34;0.08;99.22
39401;SHT31;75540;50.000;7.360;2024-01-07T04:08:03;0.06;99.28
39401;SHT31;75540;50.000;7.360;2024-01-07T04:10:33;0.22;99.20
39401;SHT31;75540;50.000;7.360;2024-01-07T04:13:01;0.16;99.36
39401;SHT31;75540;50.000;7.360;2024-01-07T04:15:30;0.09;99.23
39401;SHT31;75540;50.000;7.360;2024-01-07T04:18:01;0.05;99.49
39401;SHT31;75540;50.000;7.360;2024-01-07T04:20:30;0.22;99.29
39401;SHT31;75540;50.000;7.360;2024-01-07T04:22:58;0.18;99.28
39401;SHT31;75540;50.000;7.360;2024-01-07T04:25:26;0.19;99.22
39401;SHT31;75540;50.000;7.360;2024-01-07T04:27:56;0.18;99.24
39401;SHT31;75540;50.000;7.360;2024-01-07T04:30:25;0.13;99.23
39401;SHT31;75540;50.000;7.360;2024-01-07T04:32:53;0.16;99.30
39401;SHT31;75540;50.000;7.360;2024-01-07T04:35:21;0.19;99.29
39401;SHT31;75540;50.000;7.360;2024-01-07T04:37:49;0.22;99.23
39401;SHT31;75540;50.000;7.360;2024-01-07T04:40:17;0.12;99.30
39401;SHT31;75540;50.000;7.360;2024-01-07T04:42:45;0.22;99.36
39401;SHT31;75540;50.000;7.360;2024-01-07T04:45:15;0.15;99.37
39401;SHT31;75540;50.000;7.360;2024-01-07T04:47:43;0.18;99.46
39401;SHT31;75540;50.000;7.360;2024-01-07T04:50:12;0.12;99.41
39401;SHT31;75540;50.000;7.360;2024-01-07T04:52:41;0.05;99.62
39401;SHT31;75540;50.000;7.360;2024-01-07T04:55:10;0.12;99.78
39401;SHT31;75540;50.000;7.360;2024-01-07T04:57:38;0.21;99.65
39401;SHT31;75540;50.000;7.360;2024-01-07T05:00:07;0.16;99.45
39401;SHT31;75540;50.000;7.360;2024-01-07T05:02:37;0.11;99.60
39401;SHT31;75540;50.000;7.360;2024-01-07T05:05:07;0.18;99.54
39401;SHT31;75540;50.000;7.360;2024-01-07T05:07:35;0.21;99.48
39401;SHT31;75540;50.000;7.360;2024-01-07T05:10:05;0.18;99.58
39401;SHT31;75540;50.000;7.360;2024-01-07T05:12:33;0.19;99.50
39401;SHT31;75540;50.000;7.360;2024-01-07T05:15:02;0.16;99.45
39401;SHT31;75540;50.000;7.360;2024-01-07T05:17:30;0.19;99.57
39401;SHT31;75540;50.000;7.360;2024-01-07T05:20:00;0.11;99.58
39401;SHT31;75540;50.000;7.360;2024-01-07T05:22:28;0.11;99.73
39401;SHT31;75540;50.000;7.360;2024-01-07T05:24:56;0.15;99.67
39401;SHT31;75540;50.000;7.360;2024-01-07T05:27:24;0.18;99.72
39401;SHT31;75540;50.000;7.360;2024-01-07T05:29:53;0.08;99.80
39401;SHT31;75540;50.000;7.360;2024-01-07T05:32:22;0.16;99.88
39401;SHT31;75540;50.000;7.360;2024-01-07T05:34:50;0.13;99.74
39401;SHT31;75540;50.000;7.360;2024-01-07T05:37:20;0.19;99.63
39401;SHT31;75540;50.000;7.360;2024-01-07T05:39:49;0.21;99.53
39401;SHT31;75540;50.000;7.360;2024-01-07T05:42:17;0.13;99.54
39401;SHT31;75540;50.000;7.360;2024-01-07T05:44:48;0.21;99.53
39401;SHT31;75540;50.000;7.360;2024-01-07T05:47:17;0.11;99.46
39401;SHT31;75540;50.000;7.360;2024-01-07T05:49:45;0.12;99.45
39401;SHT31;75540;50.000;7.360;2024-01-07T05:52:14;0.13;99.53
39401;SHT31;75540;50.000;7.360;2024-01-07T05:54:43;0.16;99.34
39401;SHT31;75540;50.000;7.360;2024-01-07T05:57:12;0.19;99.26
39401;SHT31;75540;50.000;7.360;2024-01-07T05:59:40;0.19;99.22
39401;SHT31;75540;50.000;7.360;2024-01-07T06:02:09;0.13;99.15
39401;SHT31;75540;50.000;7.360;2024-01-07T06:04:37;0.19;99.20
39401;SHT31;75540;50.000;7.360;2024-01-07T06:07:06;0.15;99.40
39401;SHT31;75540;50.000;7.360;2024-01-07T06:09:34;0.19;99.32
39401;SHT31;75540;50.000;7.360;2024-01-07T06:12:04;0.15;99.13
39401;SHT31;75540;50.000;7.360;2024-01-07T06:14:33;0.21;99.20
39401;SHT31;75540;50.000;7.360;2024-01-07T06:17:01;0.13;99.37
39401;SHT31;75540;50.000;7.360;2024-01-07T06:19:30;0.18;99.29
39401;SHT31;75540;50.000;7.360;2024-01-07T06:21:58;0.09;99.05
39401;SHT31;75540;50.000;7.360;2024-01-07T06:24:26;0.18;99.10
39401;SHT31;75540;50.000;7.360;2024-01-07T06:26:54;0.15;99.10
39401;SHT31;75540;50.000;7.360;2024-01-07T06:29:24;0.16;99.02
39401;SHT31;75540;50.000;7.360;2024-01-07T06:31:52;0.21;98.98
39401;SHT31;75540;50.000;7.360;2024-01-07T06:34:20;0.28;99.02
39401;SHT31;75540;50.000;7.360;2024-01-07T06:36:48;0.25;98.85
39401;SHT31;75540;50.000;7.360;2024-01-07T06:39:17;0.26;98.86
39401;SHT31;75540;50.000;7.360;2024-01-07T06:41:45;0.18;99.36
39401;SHT31;75540;50.000;7.360;2024-01-07T06:44:13;0.22;99.28
39401;SHT31;75540;50.000;7.360;2024-01-07T06:46:43;0.16;99.27
39401;SHT31;75540;50.000;7.360;2024-01-07T06:49:11;0.19;98.90
39401;SHT31;75540;50.000;7.360;2024-01-07T06:51:39;0.12;98.70
39401;SHT31;75540;50.000;7.360;2024-01-07T06:54:08;0.18;98.70
39401;SHT31;75540;50.000;7.360;2024-01-07T06:56:36;0.12;98.64
39401;SHT31;75540;50.000;7.360;2024-01-07T06:59:04;0.08;98.80
39401;SHT31;75540;50.000;7.360;2024-01-07T07:01:34;0.11;98.59
39401;SHT31;75540;50.000;7.360;2024-01-07T07:04:03;0.11;98.62
39401;SHT31;75540;50.000;7.360;2024-01-07T07:06:32;0.11;98.57
39401;SHT31;75540;50.000;7.360;2024-01-07T07:09:01;0.09;98.53
39401;SHT31;75540;50.000;7.360;2024-01-07T07:11:29;0.08;98.55
39401;SHT31;75540;50.000;7.360;2024-01-07T07:13:58;0.09;98.61
39401;SHT31;75540;50.000;7.360;2024-01-07T07:16:26;0.02;99.06
39401;SHT31;75540;50.000;7.360;2024-01-07T07:18:55;0.06;98.81
39401;SHT31;75540;50.000;7.360;2024-01-07T07:21:24;0.15;98.74
39401;SHT31;75540;50.000;7.360;2024-01-07T07:23:54;0.12;98.68
39401;SHT31;75540;50.000;7.360;2024-01-07T07:26:22;0.06;98.77
39401;SHT31;75540;50.000;7.360;2024-01-07T07:28:50;0.03;98.81
39401;SHT31;75540;50.000;7.360;2024-01-07T07:31:19;0.09;98.73
39401;SHT31;75540;50.000;7.360;2024-01-07T07:33:47;0.06;98.71
39401;SHT31;75540;50.000;7.360;2024-01-07T07:36:15;0.12;98.68
39401;SHT31;75540;50.000;7.360;2024-01-07T07:38:45;0.11;98.62
39401;SHT31;75540;50.000;7.360;2024-01-07T07:41:13;0.18;98.59
39401;SHT31;75540;50.000;7.360;2024-01-07T07:43:41;0.12;98.64
39401;SHT31;75540;50.000;7.360;2024-01-07T07:46:09;0.01;98.82
39401;SHT31;75540;50.000;7.360;2024-01-07T07:48:38;0.05;98.97
39401;SHT31;75540;50.000;7.360;2024-01-07T07:51:07;0.06;98.88
39401;SHT31;75540;50.000;7.360;2024-01-07T07:53:37;-0.05;99.08
39401;SHT31;75540;50.000;7.360;2024-01-07T07:56:08;-0.01;99.36
39401;SHT31;75540;50.000;7.360;2024-01-07T07:58:41;-0.05;99.30
39401;SHT31;75540;50.000;7.360;2024-01-07T08:01:09;-0.06;99.44
39401;SHT31;75540;50.000;7.360;2024-01-07T08:03:38;0.05;99.33
39401;SHT31;75540;50.000;7.360;2024-01-07T08:06:06;-0.10;99.53
39401;SHT31;75540;50.000;7.360;2024-01-07T08:08:34;-0.09;99.71
39401;SHT31;75540;50.000;7.360;2024-01-07T08:11:03;-0.01;99.55
39401;SHT31;75540;50.000;7.360;2024-01-07T08:13:37;0.03;99.54
39401;SHT31;75540;50.000;7.360;2024-01-07T08:16:06;-0.05;99.58
39401;SHT31;75540;50.000;7.360;2024-01-07T08:18:36;-0.06;99.60
39401;SHT31;75540;50.000;7.360;2024-01-07T08:21:05;-0.09;99.57
39401;SHT31;75540;50.000;7.360;2024-01-07T08:23:33;0.02;99.59
39401;SHT31;75540;50.000;7.360;2024-01-07T08:26:02;-0.09;99.56
39401;SHT31;75540;50.000;7.360;2024-01-07T08:28:30;-0.06;99.71
39401;SHT31;75540;50.000;7.360;2024-01-07T08:31:00;-0.01;99.71
39401;SHT31;75540;50.000;7.360;2024-01-07T08:33:28;-0.06;99.71
39401;SHT31;75540;50.000;7.360;2024-01-07T08:36:00;-0.08;99.77
39401;SHT31;75540;50.000;7.360;2024-01-07T08:38:28;-0.12;99.99
39401;SHT31;75540;50.000;7.360;2024-01-07T08:40:56;-0.03;99.92
39401;SHT31;75540;50.000;7.360;2024-01-07T08:43:25;-0.05;99.89
39401;SHT31;75540;50.000;7.360;2024-01-07T08:45:53;0.06;99.77
39401;SHT31;75540;50.000;7.360;2024-01-07T08:48:22;0.06;99.71
39401;SHT31;75540;50.000;7.360;2024-01-07T08:50:50;0.11;99.66
39401;SHT31;75540;50.000;7.360;2024-01-07T08:53:19;0.09;99.60
39401;SHT31;75540;50.000;7.360;2024-01-07T08:55:49;0.05;99.91
39401;SHT31;75540;50.000;7.360;2024-01-07T08:58:17;-0.01;99.78
39401;SHT31;75540;50.000;7.360;2024-01-07T09:00:45;0.06;99.79
39401;SHT31;75540;50.000;7.360;2024-01-07T09:03:14;0.06;99.85
39401;SHT31;75540;50.000;7.360;2024-01-07T09:05:43;0.05;99.74
39401;SHT31;75540;50.000;7.360;2024-01-07T09:08:12;0.11;99.71
39401;SHT31;75540;50.000;7.360;2024-01-07T09:10:41;0.06;99.61
39401;SHT31;75540;50.000;7.360;2024-01-07T09:13:09;0.02;99.66
39401;SHT31;75540;50.000;7.360;2024-01-07T09:15:37;-0.02;99.82
39401;SHT31;75540;50.000;7.360;2024-01-07T09:18:07;-0.03;99.82
39401;SHT31;75540;50.000;7.360;2024-01-07T09:20:36;0.05;99.98
39401;SHT31;75540;50.000;7.360;2024-01-07T09:23:05;0.06;99.93
39401;SHT31;75540;50.000;7.360;2024-01-07T09:25:33;0.08;99.75
39401;SHT31;75540;50.000;7.360;2024-01-07T09:28:02;0.06;99.81
39401;SHT31;75540;50.000;7.360;2024-01-07T09:30:31;0.02;99.94
39401;SHT31;75540;50.000;7.360;2024-01-07T09:32:59;0.13;99.84
39401;SHT31;75540;50.000;7.360;2024-01-07T09:35:28;0.03;99.84
39401;SHT31;75540;50.000;7.360;2024-01-07T09:37:56;0.13;99.86
39401;SHT31;75540;50.000;7.360;2024-01-07T09:40:25;0.16;99.77
39401;SHT31;75540;50.000;7.360;2024-01-07T09:42:54;0.18;99.71
39401;SHT31;75540;50.000;7.360;2024-01-07T09:45:23;0.22;99.65
39401;SHT31;75540;50.000;7.360;2024-01-07T09:47:52;0.13;99.66
39401;SHT31;75540;50.000;7.360;2024-01-07T09:50:20;0.21;99.62
39401;SHT31;75540;50.000;7.360;2024-01-07T09:52:50;0.16;99.56
39401;SHT31;75540;50.000;7.360;2024-01-07T09:55:30;0.18;99.62
39401;SHT31;75540;50.000;7.360;2024-01-07T09:57:59;0.15;99.60
39401;SHT31;75540;50.000;7.360;2024-01-07T10:00:27;0.25;99.64
39401;SHT31;75540;50.000;7.360;2024-01-07T10:02:58;0.25;99.60
39401;SHT31;75540;50.000;7.360;2024-01-07T10:05:26;0.23;99.57
39401;SHT31;75540;50.000;7.360;2024-01-07T10:07:57;0.26;99.50
39401;SHT31;75540;50.000;7.360;2024-01-07T10:10:25;0.23;99.60
39401;SHT31;75540;50.000;7.360;2024-01-07T10:12:55;0.21;99.59
39401;SHT31;75540;50.000;7.360;2024-01-07T10:15:23;0.22;99.56
39401;SHT31;75540;50.000;7.360;2024-01-07T10:17:55;0.16;99.63
39401;SHT31;75540;50.000;7.360;2024-01-07T10:20:23;0.26;99.63
39401;SHT31;75540;50.000;7.360;2024-01-07T10:22:51;0.15;99.58
39401;SHT31;75540;50.000;7.360;2024-01-07T10:25:24;0.19;99.71
39401;SHT31;75540;50.000;7.360;2024-01-07T10:27:52;0.16;99.77
39401;SHT31;75540;50.000;7.360;2024-01-07T10:30:22;0.22;99.75
39401;SHT31;75540;50.000;7.360;2024-01-07T10:32:55;0.18;99.85
39401;SHT31;75540;50.000;7.360;2024-01-07T10:35:28;0.19;99.99
39401;SHT31;75540;50.000;7.360;2024-01-07T10:37:57;0.25;99.88
39401;SHT31;75540;50.000;7.360;2024-01-07T10:40:27;0.16;99.99
39401;SHT31;75540;50.000;7.360;2024-01-07T10:42:56;0.11;99.99
39401;SHT31;75540;50.000;7.360;2024-01-07T10:45:26;0.25;99.99
39401;SHT31;75540;50.000;7.360;2024-01-07T10:47:55;0.22;99.99
39401;SHT31;75540;50.000;7.360;2024-01-07T10:50:28;0.19;99.99
39401;SHT31;75540;50.000;7.360;2024-01-07T10:53:01;0.18;99.99
39401;SHT31;75540;50.000;7.360;2024-01-07T10:55:34;0.26;99.99
39401;SHT31;75540;50.000;7.360;2024-01-07T10:58:04;0.22;99.94
39401;SHT31;75540;50.000;7.360;2024-01-07T11:00:35;0.26;99.91
39401;SHT31;75540;50.000;7.360;2024-01-07T11:03:09;0.28;99.87
39401;SHT31;75540;50.000;7.360;2024-01-07T11:05:44;0.28;99.81
39401;SHT31;75540;50.000;7.360;2024-01-07T11:08:19;0.28;99.71
39401;SHT31;75540;50.000;7.360;2024-01-07T11:10:53;0.28;99.80
39401;SHT31;75540;50.000;7.360;2024-01-07T11:13:33;0.32;99.79
39401;SHT31;75540;50.000;7.360;2024-01-07T11:16:04;0.32;99.76
39401;SHT31;75540;50.000;7.360;2024-01-07T11:18:38;0.28;99.91
39401;SHT31;75540;50.000;7.360;2024-01-07T11:21:06;0.28;99.89
39401;SHT31;75540;50.000;7.360;2024-01-07T11:23:36;0.36;99.90
39401;SHT31;75540;50.000;7.360;2024-01-07T11:26:10;0.45;99.82
39401;SHT31;75540;50.000;7.360;2024-01-07T11:28:46;0.38;99.84
39401;SHT31;75540;50.000;7.360;2024-01-07T11:31:17;0.42;99.67
39401;SHT31;75540;50.000;7.360;2024-01-07T11:33:47;0.33;99.77
39401;SHT31;75540;50.000;7.360;2024-01-07T11:36:16;0.38;99.67
39401;SHT31;75540;50.000;7.360;2024-01-07T11:38:45;0.42;99.63
39401;SHT31;75540;50.000;7.360;2024-01-07T11:41:16;0.41;99.49
39401;SHT31;75540;50.000;7.360;2024-01-07T11:43:55;0.39;99.51
39401;SHT31;75540;50.000;7.360;2024-01-07T11:46:27;0.36;99.42
39401;SHT31;75540;50.000;7.360;2024-01-07T11:48:56;0.46;99.36
39401;SHT31;75540;50.000;7.360;2024-01-07T11:51:25;0.39;99.16
39401;SHT31;75540;50.000;7.360;2024-01-07T11:53:54;0.42;98.93
39401;SHT31;75540;50.000;7.360;2024-01-07T11:56:22;0.52;98.97
39401;SHT31;75540;50.000;7.360;2024-01-07T11:58:52;0.50;98.73
39401;SHT31;75540;50.000;7.360;2024-01-07T12:01:20;0.48;98.68
39401;SHT31;75540;50.000;7.360;2024-01-07T12:03:50;0.66;98.54
39401;SHT31;75540;50.000;7.360;2024-01-07T12:06:21;0.50;98.30
39401;SHT31;75540;50.000;7.360;2024-01-07T12:08:50;0.45;97.98
39401;SHT31;75540;50.000;7.360;2024-01-07T12:11:19;0.59;98.05
39401;SHT31;75540;50.000;7.360;2024-01-07T12:13:48;0.52;97.76
39401;SHT31;75540;50.000;7.360;2024-01-07T12:16:17;0.49;97.55
39401;SHT31;75540;50.000;7.360;2024-01-07T12:18:46;0.50;97.38
39401;SHT31;75540;50.000;7.360;2024-01-07T12:21:20;0.33;97.22
39401;SHT31;75540;50.000;7.360;2024-01-07T12:23:55;0.23;97.21
39401;SHT31;75540;50.000;7.360;2024-01-07T12:26:27;0.19;96.77
39401;SHT31;75540;50.000;7.360;2024-01-07T12:28:58;0.19;96.94
39401;SHT31;75540;50.000;7.360;2024-01-07T12:31:27;0.13;96.61
39401;SHT31;75540;50.000;7.360;2024-01-07T12:33:56;0.18;96.79
39401;SHT31;75540;50.000;7.360;2024-01-07T12:36:26;0.13;96.62
39401;SHT31;75540;50.000;7.360;2024-01-07T12:38:54;0.09;96.66
39401;SHT31;75540;50.000;7.360;2024-01-07T12:41:23;0.11;96.38
39401;SHT31;75540;50.000;7.360;2024-01-07T12:43:51;0.12;96.40
39401;SHT31;75540;50.000;7.360;2024-01-07T12:46:19;0.23;96.49
39401;SHT31;75540;50.000;7.360;2024-01-07T12:48:48;0.16;96.12
39401;SHT31;75540;50.000;7.360;2024-01-07T12:51:16;0.16;96.01
39401;SHT31;75540;50.000;7.360;2024-01-07T12:53:46;0.05;96.04
39401;SHT31;75540;50.000;7.360;2024-01-07T12:56:14;0.26;96.22
39401;SHT31;75540;50.000;7.360;2024-01-07T12:58:43;0.30;96.20
39401;SHT31;75540;50.000;7.360;2024-01-07T13:01:17;0.41;95.90
39401;SHT31;75540;50.000;7.360;2024-01-07T13:03:45;0.35;95.63
39401;SHT31;75540;50.000;7.360;2024-01-07T13:06:15;0.30;95.24
39401;SHT31;75540;50.000;7.360;2024-01-07T13:08:45;0.22;95.11
39401;SHT31;75540;50.000;7.360;2024-01-07T13:11:15;0.12;94.89
39401;SHT31;75540;50.000;7.360;2024-01-07T13:13:43;0.11;94.86
39401;SHT31;75540;50.000;7.360;2024-01-07T13:16:11;0.22;95.08
39401;SHT31;75540;50.000;7.360;2024-01-07T13:18:39;0.16;95.19
39401;SHT31;75540;50.000;7.360;2024-01-07T13:21:08;0.25;95.16
39401;SHT31;75540;50.000;7.360;2024-01-07T13:23:36;0.25;95.15
39401;SHT31;75540;50.000;7.360;2024-01-07T13:26:05;0.19;95.14
39401;SHT31;75540;50.000;7.360;2024-01-07T13:28:38;0.16;95.05
39401;SHT31;75540;50.000;7.360;2024-01-07T13:31:07;0.12;95.13
39401;SHT31;75540;50.000;7.360;2024-01-07T13:33:38;0.18;95.17
39401;SHT31;75540;50.000;7.360;2024-01-07T13:36:07;0.19;95.14
39401;SHT31;75540;50.000;7.360;2024-01-07T13:38:37;0.11;95.06
39401;SHT31;75540;50.000;7.360;2024-01-07T13:41:09;0.12;94.89
39401;SHT31;75540;50.000;7.360;2024-01-07T13:43:38;0.08;95.13
39401;SHT31;75540;50.000;7.360;2024-01-07T13:46:07;0.05;94.84
39401;SHT31;75540;50.000;7.360;2024-01-07T13:48:35;0.11;94.89
39401;SHT31;75540;50.000;7.360;2024-01-07T13:51:05;0.12;94.55
39401;SHT31;75540;50.000;7.360;2024-01-07T13:53:34;0.11;94.56
39401;SHT31;75540;50.000;7.360;2024-01-07T13:56:02;0.06;94.57
39401;SHT31;75540;50.000;7.360;2024-01-07T13:58:32;0.03;94.61
39401;SHT31;75540;50.000;7.360;2024-01-07T14:01:01;-0.01;94.52
39401;SHT31;75540;50.000;7.360;2024-01-07T14:03:29;-0.06;94.61
39401;SHT31;75540;50.000;7.360;2024-01-07T14:06:00;-0.08;94.83
39401;SHT31;75540;50.000;7.360;2024-01-07T14:08:28;-0.02;94.79
39401;SHT31;75540;50.000;7.360;2024-01-07T14:10:56;-0.03;94.74
39401;SHT31;75540;50.000;7.360;2024-01-07T14:13:25;-0.12;94.89
39401;SHT31;75540;50.000;7.360;2024-01-07T14:15:56;-0.16;94.96
39401;SHT31;75540;50.000;7.360;2024-01-07T14:18:24;-0.13;94.83
39401;SHT31;75540;50.000;7.360;2024-01-07T14:20:52;-0.16;94.83
39401;SHT31;75540;50.000;7.360;2024-01-07T14:23:20;-0.26;94.77
39401;SHT31;75540;50.000;7.360;2024-01-07T14:25:49;-0.20;94.60
39401;SHT31;75540;50.000;7.360;2024-01-07T14:28:17;-0.32;94.34
39401;SHT31;75540;50.000;7.360;2024-01-07T14:30:46;-0.42;93.91
39401;SHT31;75540;50.000;7.360;2024-01-07T14:33:15;-0.33;93.67
39401;SHT31;75540;50.000;7.360;2024-01-07T14:35:43;-0.40;93.30
39401;SHT31;75540;50.000;7.360;2024-01-07T14:38:12;-0.44;92.61
39401;SHT31;75540;50.000;7.360;2024-01-07T14:40:40;-0.40;92.61
39401;SHT31;75540;50.000;7.360;2024-01-07T14:43:13;-0.48;92.70
39401;SHT31;75540;50.000;7.360;2024-01-07T14:45:41;-0.43;92.05
39401;SHT31;75540;50.000;7.360;2024-01-07T14:48:09;-0.32;91.98
39401;SHT31;75540;50.000;7.360;2024-01-07T14:50:39;-0.48;90.78
39401;SHT31;75540;50.000;7.360;2024-01-07T14:53:07;-0.48;89.80
39401;SHT31;75540;50.000;7.360;2024-01-07T14:55:35;-0.54;89.69
39401;SHT31;75540;50.000;7.360;2024-01-07T14:58:03;-0.53;88.95
39401;SHT31;75540;50.000;7.360;2024-01-07T15:00:32;-0.63;87.66
39401;SHT31;75540;50.000;7.360;2024-01-07T15:03:00;-0.66;88.69
39401;SHT31;75540;50.000;7.360;2024-01-07T15:05:29;-0.57;88.80
39401;SHT31;75540;50.000;7.360;2024-01-07T15:07:58;-0.60;88.03
39401;SHT31;75540;50.000;7.360;2024-01-07T15:10:26;-0.57;88.11
39401;SHT31;75540;50.000;7.360;2024-01-07T15:12:54;-0.63;88.09
39401;SHT31;75540;50.000;7.360;2024-01-07T15:15:23;-0.79;88.22
39401;SHT31;75540;50.000;7.360;2024-01-07T15:17:56;-0.63;89.08
39401;SHT31;75540;50.000;7.360;2024-01-07T15:20:25;-0.72;88.62
39401;SHT31;75540;50.000;7.360;2024-01-07T15:22:53;-0.76;88.92
39401;SHT31;75540;50.000;7.360;2024-01-07T15:25:23;-0.88;88.58
39401;SHT31;75540;50.000;7.360;2024-01-07T15:27:52;-0.87;87.78
39401;SHT31;75540;50.000;7.360;2024-01-07T15:30:20;-0.88;87.81
39401;SHT31;75540;50.000;7.360;2024-01-07T15:32:48;-0.84;87.77
39401;SHT31;75540;50.000;7.360;2024-01-07T15:35:16;-0.81;87.29
39401;SHT31;75540;50.000;7.360;2024-01-07T15:37:45;-1.07;86.50
39401;SHT31;75540;50.000;7.360;2024-01-07T15:40:13;-1.12;87.14
39401;SHT31;75540;50.000;7.360;2024-01-07T15:42:43;-1.07;86.79
39401;SHT31;75540;50.000;7.360;2024-01-07T15:45:11;-1.15;86.45
39401;SHT31;75540;50.000;7.360;2024-01-07T15:47:39;-1.11;86.46
39401;SHT31;75540;50.000;7.360;2024-01-07T15:50:08;-1.31;84.55
39401;SHT31;75540;50.000;7.360;2024-01-07T15:52:37;-1.27;84.36